Time;durP1;ratioP1;P1;durP2;ratioP2;P2;SDS_P1;SDS_P2;PMS_P1;PMS_P2;Temp;Humidity;BMP_temperature;BMP_pressure;BME280_temperature;BME280_humidity;BME280_pressure;Samples;Min_cycle;Max_cycle;Signal;HPM_P1;HPM_P2
2021/12/16 00:01:41;;;;;;;12.18;4.53;;;12.40;91.60;;;;;;5040050;28;20572;-59
2021/12/16 00:03:56;;;;;;;13.95;4.35;;;12.40;91.50;;;;;;5026143;28;20046;-61
2021/12/16 00:09:08;;;;;;;11.27;4.88;;;12.30;91.60;;;;;;5036112;28;20137;-61
2021/12/16 00:33:18;;;;;;;8.02;3.97;;;12.40;91.70;;;;;;5046592;28;20052;-62
2021/12/16 00:35:47;;;;;;;9.43;5.05;;;12.30;91.60;;;;;;5043918;28;20514;-61
2021/12/16 00:38:14;;;;;;;8.00;4.47;;;12.30;91.50;;;;;;5040785;28;20142;-61
2021/12/16 00:40:42;;;;;;;12.25;4.20;;;12.20;91.70;;;;;;5042048;28;20123;-60
2021/12/16 00:43:19;;;;;;;5.18;3.83;;;12.30;91.80;;;;;;5047486;28;20551;-61
2021/12/16 00:55:57;;;;;;;7.88;3.70;;;12.30;91.80;;;;;;5039581;28;20084;-61
2021/12/16 00:58:28;;;;;;;6.93;3.63;;;12.20;91.80;;;;;;5036356;28;20048;-61
2021/12/16 01:01:04;;;;;;;7.45;4.07;;;12.20;91.90;;;;;;5039022;28;20077;-61
2021/12/16 01:09:41;;;;;;;7.35;3.58;;;12.30;92.20;;;;;;5047951;28;20147;-60
2021/12/16 01:34:22;;;;;;;11.68;4.05;;;12.20;92.10;;;;;;5055708;28;20115;-60
2021/12/16 01:42:17;;;;;;;12.52;3.72;;;12.20;92.00;;;;;;5042363;28;20134;-61
2021/12/16 01:50:08;;;;;;;4.65;3.22;;;12.20;92.00;;;;;;5048704;28;20071;-60
2021/12/16 01:55:14;;;;;;;4.32;3.15;;;12.20;92.10;;;;;;5057102;28;20067;-60
2021/12/16 01:57:49;;;;;;;6.30;3.83;;;12.20;92.20;;;;;;5036321;28;20084;-61
2021/12/16 02:00:43;;;;;;;9.50;4.32;;;12.20;92.30;;;;;;5047088;28;20048;-60
2021/12/16 02:03:10;;;;;;;;;;;12.20;92.20;;;;;;5042127;28;20053;-60
2021/12/16 02:08:23;;;;;;;6.53;4.13;;;12.20;92.40;;;;;;4683180;28;10000082;-61
2021/12/16 02:11:54;;;;;;;7.18;3.50;;;12.20;92.40;;;;;;5045319;28;20495;-61
2021/12/16 02:33:36;;;;;;;5.20;3.33;;;12.20;92.20;;;;;;5048416;28;20045;-61
2021/12/16 02:35:47;;;;;;;5.45;3.47;;;12.20;92.20;;;;;;5057135;28;20083;-62
2021/12/16 02:38:16;;;;;;;9.68;3.80;;;12.20;92.30;;;;;;5048492;28;20132;-61
2021/12/16 02:40:45;;;;;;;7.00;3.47;;;12.20;92.30;;;;;;5027612;28;20083;-61
2021/12/16 02:48:33;;;;;;;5.40;3.30;;;12.20;92.60;;;;;;5046080;28;20045;-61
2021/12/16 02:51:15;;;;;;;11.13;3.40;;;12.10;92.30;;;;;;5048122;28;20127;-61
2021/12/16 02:53:48;;;;;;;5.43;3.00;;;12.10;92.00;;;;;;5043968;28;20084;-61
2021/12/16 02:56:14;;;;;;;6.07;3.40;;;12.10;92.20;;;;;;5029890;28;20103;-61
2021/12/16 02:58:43;;;;;;;9.02;3.83;;;12.10;92.20;;;;;;5035713;28;20056;-61
2021/12/16 03:01:14;;;;;;;8.50;4.70;;;12.10;92.20;;;;;;5049366;28;20054;-61
2021/12/16 03:03:41;;;;;;;6.20;3.85;;;12.10;92.10;;;;;;5035205;28;20858;-61
2021/12/16 03:06:10;;;;;;;7.13;3.50;;;12.10;92.30;;;;;;5041671;28;20047;-61
2021/12/16 03:08:38;;;;;;;8.30;4.10;;;12.10;92.20;;;;;;5044263;28;20128;-60
2021/12/16 03:11:16;;;;;;;9.85;3.65;;;12.10;92.20;;;;;;5047238;28;20135;-62
2021/12/16 03:14:02;;;;;;;6.53;3.33;;;12.10;92.10;;;;;;5054938;28;20541;-61
2021/12/16 03:21:48;;;;;;;5.32;3.90;;;12.10;92.10;;;;;;5043376;28;20745;-61
2021/12/16 03:32:54;;;;;;;6.32;3.25;;;12.10;92.40;;;;;;5054991;28;20083;-61
2021/12/16 03:35:38;;;;;;;5.20;2.65;;;12.10;92.40;;;;;;5021243;28;20076;-62
2021/12/16 03:38:08;;;;;;;7.05;2.90;;;12.10;92.30;;;;;;5044846;28;20144;-59
2021/12/16 03:40:35;;;;;;;4.93;3.78;;;12.10;92.50;;;;;;5044315;28;20073;-61
2021/12/16 03:43:11;;;;;;;6.07;3.08;;;12.10;92.30;;;;;;5055345;28;20081;-60
2021/12/16 03:48:38;;;;;;;7.13;3.20;;;12.10;92.20;;;;;;5042081;28;20112;-61
2021/12/16 03:51:12;;;;;;;6.53;2.72;;;12.10;92.20;;;;;;5039216;28;20092;-61
2021/12/16 03:53:42;;;;;;;4.90;2.97;;;12.10;92.10;;;;;;5051846;28;20049;-61
2021/12/16 03:56:09;;;;;;;4.70;2.45;;;12.10;92.20;;;;;;5039308;28;20077;-61
2021/12/16 03:58:36;;;;;;;6.72;3.60;;;12.00;92.10;;;;;;5052049;28;20129;-60
2021/12/16 04:01:05;;;;;;;4.13;2.53;;;12.00;92.20;;;;;;5034433;28;20140;-60
2021/12/16 04:03:31;;;;;;;5.47;2.67;;;12.00;92.40;;;;;;5042488;28;20500;-61
2021/12/16 04:05:59;;;;;;;6.32;3.15;;;12.00;92.30;;;;;;5054249;28;20106;-61
2021/12/16 04:08:26;;;;;;;4.32;2.78;;;12.00;92.30;;;;;;5043423;28;20088;-60
2021/12/16 04:11:05;;;;;;;4.93;2.88;;;12.00;92.00;;;;;;5035464;28;20107;-61
2021/12/16 04:13:36;;;;;;;5.20;2.45;;;12.00;92.30;;;;;;5043742;28;20511;-61
2021/12/16 04:16:04;;;;;;;3.50;2.45;;;12.00;92.30;;;;;;5050165;28;20127;-61
2021/12/16 04:18:30;;;;;;;5.97;3.25;;;12.00;92.20;;;;;;5044072;28;20083;-61
2021/12/16 04:21:15;;;;;;;6.32;3.22;;;12.00;92.20;;;;;;5051303;28;20044;-61
2021/12/16 04:23:42;;;;;;;6.43;3.20;;;12.00;92.20;;;;;;5022220;28;20083;-60
2021/12/16 04:26:09;;;;;;;6.10;3.40;;;12.00;92.20;;;;;;5049922;28;20048;-61
2021/12/16 04:28:36;;;;;;;6.60;3.53;;;12.00;92.40;;;;;;5041780;28;20048;-60
2021/12/16 04:31:02;;;;;;;4.57;3.03;;;12.00;92.20;;;;;;5052880;28;20508;-60
2021/12/16 04:33:29;;;;;;;5.10;2.80;;;12.00;92.30;;;;;;5038769;28;20080;-60
2021/12/16 04:35:56;;;;;;;5.95;3.47;;;12.00;92.50;;;;;;5052436;28;20088;-61
2021/12/16 04:38:23;;;;;;;10.93;3.50;;;12.00;92.50;;;;;;5039406;28;20049;-61
2021/12/16 04:40:50;;;;;;;5.40;3.63;;;12.00;92.50;;;;;;5050135;28;20040;-60
2021/12/16 04:43:22;;;;;;;5.72;3.03;;;12.00;92.50;;;;;;5038502;28;20088;-60
2021/12/16 04:45:49;;;;;;;7.38;2.90;;;12.00;92.20;;;;;;5047827;28;20071;-60
2021/12/16 04:48:16;;;;;;;5.15;2.60;;;12.00;92.20;;;;;;5046744;28;20049;-60
2021/12/16 04:50:43;;;;;;;6.38;3.25;;;12.00;92.20;;;;;;5038299;28;20056;-60
2021/12/16 04:53:09;;;;;;;8.88;4.30;;;12.00;92.40;;;;;;5044314;28;20492;-60
2021/12/16 04:55:36;;;;;;;6.57;3.20;;;12.00;92.50;;;;;;5041539;28;20554;-59
2021/12/16 04:58:03;;;;;;;4.25;3.05;;;12.00;92.40;;;;;;5046493;28;20076;-60
2021/12/16 05:00:30;;;;;;;5.95;2.90;;;12.00;92.40;;;;;;5053838;28;20063;-59
2021/12/16 05:02:57;;;;;;;5.93;3.53;;;12.00;92.40;;;;;;5034212;28;20057;-60
2021/12/16 05:05:24;;;;;;;7.30;2.90;;;11.90;92.40;;;;;;5050144;28;20041;-60
2021/12/16 05:07:52;;;;;;;5.55;3.13;;;12.00;92.40;;;;;;5046493;28;20041;-60
2021/12/16 05:10:19;;;;;;;6.57;3.42;;;12.00;92.70;;;;;;5046774;28;20126;-61
2021/12/16 05:12:51;;;;;;;4.55;2.63;;;11.90;92.70;;;;;;5046707;28;20041;-59
2021/12/16 05:15:20;;;;;;;5.40;3.20;;;11.90;92.70;;;;;;5049552;28;20099;-61
2021/12/16 05:17:50;;;;;;;9.75;3.55;;;12.00;92.70;;;;;;5037392;28;20103;-59
2021/12/16 05:20:23;;;;;;;6.95;3.35;;;11.90;92.70;;;;;;5037084;28;20049;-61
2021/12/16 05:28:03;;;;;;;7.05;3.50;;;11.90;92.70;;;;;;5057070;28;20056;-60
2021/12/16 05:30:30;;;;;;;5.38;3.00;;;11.90;92.60;;;;;;5043095;28;20213;-60
2021/12/16 05:32:57;;;;;;;7.07;3.10;;;11.90;92.50;;;;;;5041598;28;20132;-60
2021/12/16 05:35:24;;;;;;;5.03;3.25;;;11.90;92.70;;;;;;5049411;28;20079;-60
2021/12/16 05:37:51;;;;;;;5.15;3.47;;;11.90;92.70;;;;;;5053251;28;20052;-60
2021/12/16 05:40:23;;;;;;;9.70;3.53;;;11.80;92.70;;;;;;5042407;28;20049;-59
2021/12/16 05:42:52;;;;;;;11.45;3.83;;;11.80;92.60;;;;;;5030218;28;20118;-60
2021/12/16 05:45:19;;;;;;;6.28;3.33;;;11.80;92.60;;;;;;5042619;28;20068;-62
2021/12/16 05:47:46;;;;;;;7.53;4.22;;;11.80;92.70;;;;;;5056277;28;20098;-60
2021/12/16 05:50:13;;;;;;;9.85;4.28;;;11.80;92.40;;;;;;5041763;28;20077;-59
2021/12/16 05:52:40;;;;;;;6.72;3.33;;;11.80;92.50;;;;;;5050940;28;20072;-60
2021/12/16 05:55:07;;;;;;;4.75;3.13;;;11.90;92.40;;;;;;5021198;28;20467;-60
2021/12/16 05:57:34;;;;;;;6.45;3.20;;;11.90;92.30;;;;;;5046598;28;20077;-60
2021/12/16 06:00:04;;;;;;;5.47;3.40;;;11.90;92.20;;;;;;5042635;28;20133;-59
2021/12/16 06:02:31;;;;;;;7.93;4.03;;;11.90;92.30;;;;;;5039100;28;20488;-60
2021/12/16 06:04:58;;;;;;;7.53;3.42;;;11.80;92.30;;;;;;5041649;28;20057;-60
2021/12/16 06:07:25;;;;;;;7.95;3.13;;;11.80;92.30;;;;;;5030556;28;20094;-60
2021/12/16 06:09:52;;;;;;;9.00;3.67;;;11.80;92.40;;;;;;5038629;28;20107;-60
2021/12/16 06:12:19;;;;;;;6.70;3.85;;;11.80;92.40;;;;;;5049905;28;20072;-61
2021/12/16 06:14:55;;;;;;;8.98;4.43;;;11.80;92.70;;;;;;5043121;28;20083;-60
2021/12/16 06:28:25;;;;;;;8.32;4.13;;;11.80;92.60;;;;;;5047353;28;20492;-60
2021/12/16 06:30:51;;;;;;;8.30;3.55;;;11.80;92.50;;;;;;5054653;28;20080;-61
2021/12/16 06:33:22;;;;;;;6.00;3.58;;;11.80;92.40;;;;;;5045506;28;20037;-60
2021/12/16 06:35:52;;;;;;;7.13;4.03;;;11.80;92.50;;;;;;5039719;28;20489;-61
2021/12/16 06:38:20;;;;;;;13.25;4.05;;;11.80;92.60;;;;;;5051166;28;20110;-60
2021/12/16 06:40:46;;;;;;;10.45;4.35;;;11.80;92.60;;;;;;5039007;28;20589;-65
2021/12/16 06:43:15;;;;;;;10.98;4.00;;;11.80;92.60;;;;;;5039259;28;20057;-60
2021/12/16 06:45:46;;;;;;;7.80;4.00;;;11.80;92.50;;;;;;5041417;28;20073;-60
2021/12/16 06:48:18;;;;;;;6.00;3.95;;;11.70;92.30;;;;;;5036365;28;20096;-60
2021/12/16 06:50:54;;;;;;;8.93;3.88;;;11.80;92.40;;;;;;5037605;28;20131;-63
2021/12/16 06:53:29;;;;;;;11.27;4.22;;;11.80;92.40;;;;;;5043787;28;20515;-60
2021/12/16 06:56:11;;;;;;;8.55;4.45;;;11.90;92.50;;;;;;5046572;28;20124;-61
2021/12/16 06:58:47;;;;;;;7.95;4.53;;;11.80;92.30;;;;;;5023397;28;20037;-61
2021/12/16 07:01:31;;;;;;;14.05;4.22;;;11.80;92.50;;;;;;5050178;28;20055;-60
2021/12/16 07:03:58;;;;;;;10.40;4.88;;;11.90;92.40;;;;;;5038943;28;20460;-61
2021/12/16 07:06:29;;;;;;;10.68;3.85;;;11.80;92.40;;;;;;5048067;28;20051;-61
2021/12/16 07:09:00;;;;;;;9.60;3.80;;;11.80;92.30;;;;;;5043187;28;20045;-61
2021/12/16 07:11:27;;;;;;;11.13;4.68;;;11.80;92.30;;;;;;5056037;28;20178;-61
2021/12/16 07:14:04;;;;;;;7.72;3.92;;;11.80;92.50;;;;;;5043602;28;20182;-61
2021/12/16 07:16:31;;;;;;;13.13;4.30;;;11.80;92.50;;;;;;5041564;28;20447;-62
2021/12/16 07:18:58;;;;;;;26.27;5.22;;;11.80;92.70;;;;;;5036972;28;20080;-60
2021/12/16 07:21:25;;;;;;;9.68;4.35;;;11.80;92.60;;;;;;5049532;28;20053;-60
2021/12/16 07:23:52;;;;;;;7.45;3.75;;;11.80;92.60;;;;;;5038483;28;20053;-60
2021/12/16 07:26:19;;;;;;;5.38;3.85;;;11.80;92.70;;;;;;5043426;28;20110;-60
2021/12/16 07:28:45;;;;;;;9.13;4.38;;;11.80;93.00;;;;;;5040712;28;20114;-61
2021/12/16 07:31:12;;;;;;;9.15;4.63;;;11.80;92.80;;;;;;5043451;28;20044;-62
2021/12/16 07:33:39;;;;;;;9.70;4.57;;;11.80;92.70;;;;;;5038133;28;20077;-61
2021/12/16 07:36:06;;;;;;;11.48;5.18;;;11.90;92.60;;;;;;5032672;28;20096;-61
2021/12/16 07:38:33;;;;;;;8.82;4.85;;;11.90;92.60;;;;;;5020894;28;20069;-61
2021/12/16 07:40:59;;;;;;;15.23;5.03;;;11.90;92.60;;;;;;5042527;28;20052;-60
2021/12/16 07:43:43;;;;;;;12.50;4.68;;;11.90;92.50;;;;;;5034419;28;20053;-61
2021/12/16 07:46:10;;;;;;;9.23;4.57;;;11.80;92.30;;;;;;5050201;28;20660;-60
2021/12/16 07:48:37;;;;;;;11.45;4.40;;;11.80;92.30;;;;;;5032679;28;20091;-59
2021/12/16 07:51:04;;;;;;;12.43;3.88;;;11.80;92.30;;;;;;5041097;28;20104;-59
2021/12/16 07:53:31;;;;;;;8.88;4.05;;;11.80;92.20;;;;;;5034155;28;20663;-59
2021/12/16 07:55:58;;;;;;;7.88;4.50;;;11.80;92.20;;;;;;5040575;28;20574;-60
2021/12/16 07:58:25;;;;;;;15.65;6.82;;;11.80;92.20;;;;;;5037257;28;20049;-59
2021/12/16 08:00:52;;;;;;;16.83;5.43;;;11.80;92.50;;;;;;5038390;28;20045;-59
2021/12/16 08:03:19;;;;;;;7.32;4.68;;;11.80;92.20;;;;;;5038659;28;20053;-59
2021/12/16 08:05:53;;;;;;;7.03;4.28;;;11.80;92.10;;;;;;5038119;28;20041;-59
2021/12/16 08:08:20;;;;;;;7.60;4.57;;;11.80;92.10;;;;;;5035803;28;20041;-60
2021/12/16 08:10:48;;;;;;;7.88;3.97;;;11.80;92.20;;;;;;5036593;28;20143;-59
2021/12/16 08:13:16;;;;;;;11.75;5.72;;;11.80;92.00;;;;;;5038875;28;20096;-59
2021/12/16 08:15:43;;;;;;;18.58;5.38;;;11.80;92.10;;;;;;5035287;28;20080;-59
2021/12/16 08:18:09;;;;;;;13.43;5.70;;;11.80;92.20;;;;;;5036432;28;20069;-61
2021/12/16 08:20:37;;;;;;;9.13;3.92;;;11.80;92.10;;;;;;5022649;28;20124;-59
2021/12/16 08:23:04;;;;;;;6.50;4.20;;;11.90;92.10;;;;;;5041983;28;20306;-59
2021/12/16 08:25:31;;;;;;;6.50;3.92;;;11.80;92.10;;;;;;5047962;28;20128;-59
2021/12/16 08:27:58;;;;;;;9.52;4.90;;;11.80;92.10;;;;;;5035406;28;20045;-60
2021/12/16 08:30:28;;;;;;;16.02;4.50;;;11.80;92.20;;;;;;5034555;28;20452;-59
2021/12/16 08:32:55;;;;;;;13.20;4.70;;;11.80;92.00;;;;;;5038446;28;20048;-59
2021/12/16 08:35:23;;;;;;;11.85;4.80;;;11.90;92.20;;;;;;5037245;28;20045;-60
2021/12/16 08:37:49;;;;;;;11.10;5.00;;;11.90;92.20;;;;;;5043088;28;20500;-58
2021/12/16 08:40:18;;;;;;;9.40;4.72;;;11.90;92.20;;;;;;5042659;28;20057;-58
2021/12/16 08:42:45;;;;;;;12.40;5.13;;;11.90;92.30;;;;;;5016849;28;20084;-58
2021/12/16 08:45:15;;;;;;;14.93;6.63;;;11.90;92.50;;;;;;5047839;28;20084;-59
2021/12/16 08:47:42;;;;;;;17.52;5.00;;;11.90;92.30;;;;;;5049113;28;20105;-58
2021/12/16 08:50:09;;;;;;;12.20;5.68;;;11.90;92.30;;;;;;5046389;28;20135;-58
2021/12/16 08:52:36;;;;;;;13.38;5.10;;;11.90;92.30;;;;;;5041336;28;20376;-58
2021/12/16 08:55:04;;;;;;;8.07;4.80;;;11.90;92.50;;;;;;5040770;28;20065;-58
2021/12/16 08:57:30;;;;;;;20.80;5.57;;;11.90;92.50;;;;;;5032803;28;20111;-58
2021/12/16 08:59:57;;;;;;;10.20;5.60;;;11.90;92.50;;;;;;5042190;28;20061;-59
2021/12/16 09:02:24;;;;;;;21.88;5.53;;;11.90;92.60;;;;;;5043483;28;20037;-64
2021/12/16 09:04:52;;;;;;;13.50;5.07;;;11.90;92.60;;;;;;5031513;28;20412;-60
2021/12/16 09:07:18;;;;;;;14.85;5.70;;;11.90;92.70;;;;;;5045561;28;20052;-58
2021/12/16 09:09:46;;;;;;;11.98;5.22;;;11.90;92.60;;;;;;5057979;28;20207;-59
2021/12/16 09:14:57;;;;;;;13.60;5.53;;;11.90;92.40;;;;;;5053783;28;20059;-59
2021/12/16 09:17:24;;;;;;;8.57;4.63;;;12.00;92.60;;;;;;5041286;28;20091;-59
2021/12/16 09:19:52;;;;;;;16.33;5.80;;;12.00;92.60;;;;;;5056296;28;20040;-58
2021/12/16 09:22:23;;;;;;;25.98;5.28;;;11.90;92.60;;;;;;5024185;28;20096;-59
2021/12/16 09:24:51;;;;;;;16.27;5.60;;;12.00;92.70;;;;;;5053652;28;20487;-59
2021/12/16 09:27:18;;;;;;;15.73;5.18;;;11.90;92.70;;;;;;5041454;28;20045;-58
2021/12/16 09:29:45;;;;;;;16.98;5.07;;;12.00;92.80;;;;;;5054064;28;20080;-59
2021/12/16 09:32:12;;;;;;;15.05;5.10;;;12.00;93.00;;;;;;5038421;28;20071;-58
2021/12/16 09:34:40;;;;;;;15.57;4.75;;;12.00;92.80;;;;;;5050628;28;20500;-59
2021/12/16 09:37:07;;;;;;;15.65;5.18;;;12.00;92.80;;;;;;5043024;28;20107;-59
2021/12/16 09:39:34;;;;;;;11.00;5.03;;;12.00;92.80;;;;;;5052019;28;20045;-58
2021/12/16 09:42:01;;;;;;;15.55;5.93;;;12.00;92.70;;;;;;5043944;28;20143;-59
2021/12/16 09:44:30;;;;;;;14.20;5.40;;;12.00;92.80;;;;;;5042807;28;20068;-58
2021/12/16 09:46:58;;;;;;;13.48;6.32;;;12.00;92.90;;;;;;5045825;28;20060;-59
2021/12/16 09:49:25;;;;;;;11.43;5.72;;;11.90;92.90;;;;;;5043913;28;20037;-58
2021/12/16 09:51:55;;;;;;;16.70;5.50;;;11.90;93.10;;;;;;5047166;28;20052;-60
2021/12/16 09:54:25;;;;;;;15.93;5.50;;;11.90;93.10;;;;;;5045873;28;20099;-59
2021/12/16 09:56:52;;;;;;;14.88;5.82;;;11.90;93.20;;;;;;5041763;28;20096;-60
2021/12/16 09:59:20;;;;;;;16.58;6.30;;;11.90;93.20;;;;;;5041177;28;20570;-59
2021/12/16 10:01:48;;;;;;;22.02;6.28;;;11.90;93.20;;;;;;5045603;28;20069;-60
2021/12/16 10:04:19;;;;;;;12.18;5.70;;;11.90;93.20;;;;;;5038564;28;20328;-58
2021/12/16 10:06:48;;;;;;;17.30;7.85;;;11.90;93.20;;;;;;5041428;28;20137;-59
2021/12/16 10:09:15;;;;;;;19.38;6.07;;;12.00;93.20;;;;;;5038865;28;20054;-59
2021/12/16 10:11:44;;;;;;;20.77;6.15;;;12.00;93.20;;;;;;5033988;28;20076;-59
2021/12/16 10:19:24;;;;;;;12.93;5.68;;;11.90;93.20;;;;;;5037136;28;20059;-59
2021/12/16 10:21:53;;;;;;;11.48;5.60;;;11.90;93.10;;;;;;5050430;28;20037;-59
2021/12/16 10:24:22;;;;;;;11.07;5.40;;;12.00;93.20;;;;;;5042873;28;20156;-57
2021/12/16 10:27:14;;;;;;;17.02;5.85;;;12.00;93.30;;;;;;5049120;28;20053;-60
2021/12/16 10:29:43;;;;;;;13.68;5.32;;;12.00;93.30;;;;;;5040813;28;20460;-58
2021/12/16 10:32:42;;;;;;;13.98;6.15;;;12.00;93.30;;;;;;5052490;28;20049;-59
2021/12/16 10:35:14;;;;;;;16.40;5.38;;;12.00;93.20;;;;;;5039148;28;20164;-59
2021/12/16 10:37:45;;;;;;;15.80;5.75;;;12.00;93.10;;;;;;5051311;28;20475;-59
2021/12/16 10:40:45;;;;;;;14.70;6.93;;;12.00;93.00;;;;;;5029339;28;20139;-59
2021/12/16 10:43:28;;;;;;;15.63;6.13;;;12.10;93.00;;;;;;5036031;28;20045;-58
2021/12/16 10:46:08;;;;;;;12.35;5.60;;;12.10;93.00;;;;;;5042735;28;20049;-59
2021/12/16 10:48:46;;;;;;;15.80;6.40;;;12.10;92.90;;;;;;5047042;28;20048;-59
2021/12/16 10:51:21;;;;;;;10.23;6.13;;;12.10;92.80;;;;;;5042034;28;20145;-58
2021/12/16 10:54:06;;;;;;;17.05;5.32;;;12.10;92.70;;;;;;5045979;28;20098;-58
2021/12/16 10:56:32;;;;;;;15.15;5.07;;;12.10;92.90;;;;;;5021157;28;20076;-58
2021/12/16 10:59:11;;;;;;;12.18;5.57;;;12.10;92.90;;;;;;5051397;28;20053;-59
2021/12/16 11:01:42;;;;;;;15.07;6.03;;;12.10;92.80;;;;;;5045732;28;20068;-59
2021/12/16 11:04:15;;;;;;;8.73;5.35;;;12.10;92.80;;;;;;5058922;28;20045;-58
2021/12/16 11:06:46;;;;;;;18.13;6.78;;;12.10;92.90;;;;;;5040763;28;20103;-58
2021/12/16 11:09:24;;;;;;;16.95;7.40;;;12.10;92.90;;;;;;5045716;28;20443;-58
2021/12/16 11:12:24;;;;;;;12.63;6.10;;;12.10;92.60;;;;;;5039723;28;20045;-58
2021/12/16 11:15:13;;;;;;;19.30;6.35;;;12.10;92.60;;;;;;5023244;28;20047;-58
2021/12/16 11:18:07;;;;;;;21.73;5.65;;;12.10;92.90;;;;;;5047681;28;20392;-59
2021/12/16 11:20:41;;;;;;;;;;;12.10;92.60;;;;;;5042543;28;20049;-58
2021/12/16 11:23:40;;;;;;;23.17;6.00;;;12.10;92.30;;;;;;5052311;28;20333;-58
2021/12/16 11:26:15;;;;;;;13.82;5.63;;;12.10;92.60;;;;;;5031021;28;20055;-59
2021/12/16 11:28:51;;;;;;;15.48;6.43;;;12.20;92.80;;;;;;5031550;28;20107;-58
2021/12/16 11:31:31;;;;;;;17.42;9.32;;;12.20;93.00;;;;;;5034891;28;20049;-60
2021/12/16 11:33:59;;;;;;;23.20;7.57;;;12.10;93.00;;;;;;5053511;28;20057;-58
2021/12/16 11:36:36;;;;;;;14.50;6.18;;;12.10;93.00;;;;;;5039851;28;20057;-58
2021/12/16 11:39:09;;;;;;;18.75;8.23;;;12.10;93.30;;;;;;5049873;28;20045;-58
2021/12/16 11:41:39;;;;;;;11.95;5.90;;;12.10;93.10;;;;;;5037552;28;20456;-59
2021/12/16 11:44:24;;;;;;;19.13;6.93;;;12.20;93.00;;;;;;5052691;28;20044;-59
2021/12/16 11:46:57;;;;;;;14.75;6.85;;;12.20;93.30;;;;;;5037943;28;20053;-58
2021/12/16 11:49:25;;;;;;;11.45;6.68;;;12.20;93.00;;;;;;5048368;28;20044;-59
2021/12/16 11:52:03;;;;;;;18.35;6.60;;;12.20;93.00;;;;;;5036899;28;20045;-58
2021/12/16 11:54:35;;;;;;;17.10;6.28;;;12.20;93.00;;;;;;5045465;28;20562;-60
2021/12/16 11:57:21;;;;;;;13.68;6.68;;;12.30;93.00;;;;;;5036557;28;20045;-58
2021/12/16 11:59:55;;;;;;;12.52;5.95;;;12.20;92.90;;;;;;5052108;28;20053;-59
2021/12/16 12:02:32;;;;;;;16.50;6.50;;;12.20;93.00;;;;;;5018101;28;20064;-58
2021/12/16 12:05:19;;;;;;;15.35;6.75;;;12.20;93.00;;;;;;5047597;28;20561;-59
2021/12/16 12:07:48;;;;;;;12.80;6.03;;;12.20;93.00;;;;;;5028626;28;20068;-59
2021/12/16 12:10:22;;;;;;;14.57;6.40;;;12.20;93.00;;;;;;5048231;28;20102;-59
2021/12/16 12:12:49;;;;;;;12.30;6.72;;;12.20;93.00;;;;;;5039083;28;20044;-58
2021/12/16 12:15:17;;;;;;;12.50;7.72;;;12.30;93.00;;;;;;5042751;28;20045;-59
2021/12/16 12:17:52;;;;;;;14.98;7.03;;;12.30;93.10;;;;;;5038156;28;20045;-58
2021/12/16 12:20:24;;;;;;;12.35;6.32;;;12.20;93.10;;;;;;5050666;28;20041;-59
2021/12/16 12:22:51;;;;;;;16.02;7.28;;;12.30;93.00;;;;;;5038819;28;20052;-58
2021/12/16 12:25:18;;;;;;;14.57;8.02;;;12.30;92.90;;;;;;5042419;28;20042;-58
2021/12/16 12:27:45;;;;;;;21.05;7.53;;;12.30;93.00;;;;;;5035959;28;20088;-58
2021/12/16 12:30:12;;;;;;;11.63;6.97;;;12.30;92.80;;;;;;5043500;28;20049;-58
2021/12/16 12:32:44;;;;;;;20.23;7.18;;;12.30;93.00;;;;;;5041216;28;20072;-58
2021/12/16 12:35:37;;;;;;;18.55;7.53;;;12.30;93.00;;;;;;5048972;28;20045;-59
2021/12/16 12:38:04;;;;;;;16.00;7.20;;;12.30;92.90;;;;;;5036767;28;20122;-58
2021/12/16 12:40:37;;;;;;;15.57;6.95;;;12.30;92.80;;;;;;5035670;28;20097;-59
2021/12/16 12:43:05;;;;;;;19.27;7.10;;;12.30;92.60;;;;;;5036038;28;20053;-59
2021/12/16 12:45:38;;;;;;;19.05;6.82;;;12.30;92.60;;;;;;5049648;28;20041;-59
2021/12/16 12:48:09;;;;;;;13.75;6.60;;;12.30;92.80;;;;;;5039199;28;20099;-58
2021/12/16 12:50:40;;;;;;;16.55;6.40;;;12.30;92.40;;;;;;5039285;28;20080;-58
2021/12/16 12:53:31;;;;;;;21.88;8.75;;;12.40;92.30;;;;;;5007485;28;20052;-59
2021/12/16 12:56:28;;;;;;;15.30;5.13;;;12.40;92.00;;;;;;5049936;28;20069;-60
2021/12/16 12:59:01;;;;;;;20.63;5.97;;;12.40;92.20;;;;;;5038210;28;20469;-59
2021/12/16 13:01:52;;;;;;;19.70;6.05;;;12.40;92.40;;;;;;5044327;28;20107;-58
2021/12/16 13:04:22;;;;;;;10.30;6.55;;;12.40;91.70;;;;;;5027258;28;20377;-59
2021/12/16 13:06:53;;;;;;;18.02;5.95;;;12.40;91.90;;;;;;5046286;28;20449;-59
2021/12/16 13:09:31;;;;;;;11.55;6.03;;;12.40;92.00;;;;;;5050534;28;20456;-59
2021/12/16 13:12:00;;;;;;;13.70;5.78;;;12.40;92.10;;;;;;5039923;28;20080;-58
2021/12/16 13:14:48;;;;;;;11.93;5.72;;;12.40;91.80;;;;;;5050228;28;20068;-59
2021/12/16 13:23:20;;;;;;;12.95;5.70;;;12.40;91.70;;;;;;5025755;28;20068;-58
2021/12/16 13:28:57;;;;;;;10.82;4.82;;;12.40;91.70;;;;;;5016938;28;20040;-58
2021/12/16 13:31:50;;;;;;;9.43;3.72;;;12.30;91.70;;;;;;5039634;28;20123;-58
2021/12/16 13:34:50;;;;;;;7.45;4.43;;;12.30;91.10;;;;;;5047021;28;20118;-58
2021/12/16 13:37:23;;;;;;;14.35;5.10;;;12.30;90.20;;;;;;5030156;28;20037;-58
2021/12/16 13:39:56;;;;;;;11.20;4.25;;;12.30;91.20;;;;;;5052874;28;20511;-59
2021/12/16 13:42:23;;;;;;;8.75;4.30;;;12.30;90.90;;;;;;5051810;28;20549;-58
2021/12/16 13:45:06;;;;;;;7.38;3.53;;;12.30;91.20;;;;;;5051496;28;20132;-58
2021/12/16 14:02:02;;;;;;;5.70;3.47;;;12.20;90.60;;;;;;5041476;28;20098;-58
2021/12/16 14:04:57;;;;;;;6.38;3.50;;;12.20;90.30;;;;;;5057724;28;20113;-58
2021/12/16 14:07:57;;;;;;;7.65;3.53;;;12.20;90.20;;;;;;5042889;28;20507;-59
2021/12/16 14:10:47;;;;;;;5.55;4.25;;;12.30;90.40;;;;;;5035632;28;20522;-58
2021/12/16 14:42:38;;;;;;;14.27;3.97;;;12.20;89.10;;;;;;5046610;28;20521;-59
2021/12/16 14:45:39;;;;;;;5.75;3.42;;;12.20;90.50;;;;;;5048665;28;20053;-58
2021/12/16 14:50:48;;;;;;;10.40;4.18;;;12.20;90.70;;;;;;5053347;28;20057;-58
2021/12/16 14:53:35;;;;;;;15.55;5.47;;;12.30;90.80;;;;;;5044058;28;20085;-57
2021/12/16 14:56:14;;;;;;;8.15;3.47;;;12.20;90.40;;;;;;5040026;28;20045;-58
2021/12/16 14:58:42;;;;;;;10.55;4.15;;;12.20;90.70;;;;;;5040336;28;20064;-58
2021/12/16 15:01:17;;;;;;;11.18;4.55;;;12.20;90.60;;;;;;5062411;28;20456;-58
2021/12/16 15:03:44;;;;;;;11.48;3.78;;;12.30;90.30;;;;;;5038541;28;20045;-57
2021/12/16 15:06:20;;;;;;;9.63;3.85;;;12.20;90.50;;;;;;5054695;28;20136;-58
2021/12/16 15:11:39;;;;;;;10.05;3.42;;;12.30;90.50;;;;;;5055697;28;20420;-57
2021/12/16 15:14:20;;;;;;;8.73;3.95;;;12.30;90.40;;;;;;5016534;28;20126;-59
2021/12/16 15:44:51;;;;;;;9.55;3.67;;;12.10;90.50;;;;;;5018727;28;20623;-58
2021/12/16 15:47:18;;;;;;;12.38;4.18;;;12.10;90.60;;;;;;5036564;28;20046;-58
2021/12/16 15:49:45;;;;;;;8.45;3.75;;;12.10;90.50;;;;;;5043028;28;20049;-61
2021/12/16 15:52:12;;;;;;;11.05;4.18;;;12.00;90.30;;;;;;5048005;28;20053;-58
2021/12/16 15:54:39;;;;;;;12.43;3.83;;;12.10;90.10;;;;;;5048317;28;20564;-59
2021/12/16 15:57:06;;;;;;;12.63;4.07;;;12.10;89.90;;;;;;5045744;28;20136;-58
2021/12/16 15:59:34;;;;;;;9.48;4.22;;;12.00;90.20;;;;;;5048073;28;20113;-58
2021/12/16 16:02:01;;;;;;;13.32;3.33;;;12.00;90.20;;;;;;5040937;28;20055;-58
2021/12/16 16:04:33;;;;;;;9.30;4.20;;;12.10;90.10;;;;;;5039100;28;20053;-59
2021/12/16 16:07:06;;;;;;;9.55;5.10;;;12.00;90.10;;;;;;5044288;28;21210;-59
2021/12/16 16:09:52;;;;;;;7.90;4.65;;;12.00;90.20;;;;;;5052503;28;20330;-58
2021/12/16 16:12:23;;;;;;;6.35;3.55;;;12.00;90.20;;;;;;5041362;28;20255;-58
2021/12/16 16:14:50;;;;;;;8.13;3.90;;;12.00;90.30;;;;;;5047930;28;20045;-59
2021/12/16 16:17:20;;;;;;;10.50;3.95;;;12.00;90.30;;;;;;5036979;28;20049;-58
2021/12/16 16:19:48;;;;;;;9.32;4.50;;;12.00;90.10;;;;;;5023063;28;20119;-58
2021/12/16 16:22:15;;;;;;;14.02;3.92;;;11.90;90.20;;;;;;5036337;28;20045;-59
2021/12/16 16:24:44;;;;;;;7.70;3.97;;;12.00;90.10;;;;;;5040325;28;20045;-57
2021/12/16 16:27:26;;;;;;;9.32;4.55;;;11.90;90.30;;;;;;5041815;28;20094;-60
2021/12/16 16:29:56;;;;;;;11.98;4.20;;;12.00;90.00;;;;;;5046540;28;20156;-58
2021/12/16 16:32:23;;;;;;;8.90;4.25;;;12.00;90.20;;;;;;5032504;28;20102;-58
2021/12/16 16:34:51;;;;;;;8.27;4.82;;;11.90;90.10;;;;;;5042156;28;20045;-58
2021/12/16 16:37:22;;;;;;;13.45;4.57;;;12.00;90.00;;;;;;5037029;28;20118;-58
2021/12/16 16:39:53;;;;;;;16.50;6.03;;;11.90;90.10;;;;;;5021924;28;20044;-58
2021/12/16 16:42:20;;;;;;;9.18;3.88;;;12.00;89.80;;;;;;5032141;28;20119;-58
2021/12/16 16:44:49;;;;;;;16.80;5.22;;;12.00;90.10;;;;;;5044747;28;20053;-58
2021/12/16 16:47:27;;;;;;;9.27;4.63;;;12.00;90.00;;;;;;5021458;28;20053;-59
2021/12/16 16:49:54;;;;;;;9.85;4.50;;;12.00;89.90;;;;;;5053088;28;20052;-53
2021/12/16 16:52:24;;;;;;;11.60;4.60;;;11.90;90.10;;;;;;5028719;28;20052;-59
2021/12/16 16:54:53;;;;;;;16.05;4.85;;;11.90;90.20;;;;;;5042228;28;20103;-59
2021/12/16 16:57:21;;;;;;;8.70;4.70;;;11.90;90.40;;;;;;5035089;28;20056;-58